createdAt,value
2023-01-15T00:00:25.694Z,22.00
2023-01-15T00:05:29.792Z,18.00
2023-01-15T00:10:33.833Z,16.50
2023-01-15T00:15:37.879Z,21.25
2023-01-15T00:20:41.984Z,20.25
2023-01-15T00:26:04.129Z,20.50
2023-01-15T00:31:08.358Z,21.75
2023-01-15T00:36:13.814Z,21.50
2023-01-15T00:41:17.831Z,20.50
2023-01-15T00:46:22.015Z,22.25
2023-01-15T00:51:26.151Z,17.75
2023-01-15T00:56:30.245Z,25.75
2023-01-15T01:01:35.389Z,18.00
2023-01-15T01:06:39.565Z,17.25
2023-01-15T01:11:44.104Z,21.25
2023-01-15T01:16:49.207Z,21.00
2023-01-15T01:21:53.842Z,20.00
2023-01-15T01:26:58.358Z,21.75
2023-01-15T01:32:02.377Z,21.75
2023-01-15T01:37:06.587Z,20.50
2023-01-15T01:42:14.891Z,17.25
2023-01-15T01:47:24.135Z,19.25
2023-01-15T01:52:30.963Z,21.50
2023-01-15T01:57:35.339Z,24.25
2023-01-15T02:02:40.083Z,24.00
2023-01-15T02:07:44.362Z,19.50
2023-01-15T02:12:53.114Z,19.75
2023-01-15T02:18:08.204Z,20.75
2023-01-15T02:23:22.998Z,23.00
2023-01-15T02:28:28.995Z,42.00
2023-01-15T02:33:37.275Z,42.50
2023-01-15T02:38:43.731Z,42.75
2023-01-15T02:43:52.621Z,38.25
2023-01-15T02:49:00.943Z,40.50
2023-01-15T02:54:11.187Z,43.00
2023-01-15T02:59:20.083Z,33.00
2023-01-15T03:04:42.182Z,33.50
2023-01-15T03:09:46.645Z,34.75
2023-01-15T03:15:06.989Z,27.25
2023-01-15T03:20:22.556Z,39.25
2023-01-15T03:25:27.941Z,44.50
2023-01-15T03:30:35.038Z,47.50
2023-01-15T03:35:49.969Z,36.75
2023-01-15T03:41:29.291Z,44.50
2023-01-15T03:46:40.580Z,45.75
2023-01-15T03:52:05.400Z,37.75
2023-01-15T03:57:17.208Z,33.00
2023-01-15T04:02:23.799Z,37.75
2023-01-15T04:07:29.113Z,41.75
2023-01-15T04:12:35.326Z,40.25
2023-01-15T04:17:44.468Z,30.00
2023-01-15T04:22:49.097Z,35.25
2023-01-15T04:27:56.295Z,36.75
2023-01-15T04:33:01.005Z,24.25
2023-01-15T04:38:06.133Z,27.25
2023-01-15T04:43:30.928Z,31.25
2023-01-15T04:48:35.466Z,25.25
2023-01-15T04:53:39.992Z,27.75
2023-01-15T04:58:44.679Z,31.25
2023-01-15T05:03:49.261Z,30.00
2023-01-15T05:08:54.203Z,25.50
2023-01-15T05:13:58.748Z,26.25
2023-01-15T05:19:04.450Z,27.00
2023-01-15T05:24:10.584Z,28.00
2023-01-15T05:29:15.512Z,28.50
2023-01-15T05:34:20.145Z,25.00
2023-01-15T05:39:24.679Z,33.00
2023-01-15T05:44:30.187Z,24.75
2023-01-15T05:49:35.228Z,25.00
2023-01-15T05:54:39.679Z,22.50
2023-01-15T05:59:44.306Z,23.50
2023-01-15T06:04:48.861Z,24.75
2023-01-15T06:09:53.548Z,30.75
2023-01-15T06:14:58.130Z,26.75
2023-01-15T06:20:02.604Z,25.75
2023-01-15T06:25:07.993Z,29.25
2023-01-15T06:30:13.646Z,29.50
2023-01-15T06:35:18.304Z,24.50
2023-01-15T06:40:26.155Z,25.00
2023-01-15T06:45:52.477Z,25.50
2023-01-15T06:50:57.339Z,23.50
2023-01-15T06:56:02.996Z,22.50
2023-01-15T07:01:11.816Z,25.00
2023-01-15T07:06:17.524Z,21.75
2023-01-15T07:11:21.966Z,21.75
2023-01-15T07:16:32.283Z,23.25
2023-01-15T07:21:37.146Z,18.25
2023-01-15T07:26:41.976Z,22.25
2023-01-15T07:31:47.026Z,21.75
2023-01-15T07:36:52.005Z,21.75
2023-01-15T07:42:31.911Z,17.00
2023-01-15T07:47:54.255Z,18.75
2023-01-15T07:52:59.132Z,21.50
2023-01-15T07:58:04.860Z,44.25
2023-01-15T08:03:10.738Z,26.75
2023-01-15T08:08:19.215Z,30.50
2023-01-15T08:13:41.995Z,20.50
2023-01-15T08:18:48.164Z,26.25
2023-01-15T08:23:53.001Z,32.50
2023-01-15T08:28:57.807Z,27.75
2023-01-15T08:34:03.964Z,23.50
2023-01-15T08:39:08.695Z,21.00
2023-01-15T08:44:13.291Z,20.00
2023-01-15T08:49:18.409Z,31.50
2023-01-15T08:54:26.217Z,23.75
2023-01-15T08:59:31.030Z,28.50
2023-01-15T09:04:35.812Z,54.00
2023-01-15T09:09:40.211Z,38.00
2023-01-15T09:14:59.058Z,32.00
2023-01-15T09:20:07.409Z,31.50
2023-01-15T09:25:12.353Z,35.75
2023-01-15T09:30:22.453Z,30.75
2023-01-15T09:35:28.281Z,32.75
2023-01-15T09:40:51.229Z,28.75
2023-01-15T09:46:03.453Z,29.50
2023-01-15T09:51:19.883Z,29.50
2023-01-15T09:56:29.381Z,30.75
2023-01-15T10:01:35.168Z,27.25
2023-01-15T10:06:47.766Z,31.00
2023-01-15T10:12:15.930Z,27.00
2023-01-15T10:17:23.171Z,66.50
2023-01-15T10:23:03.250Z,49.50
2023-01-15T10:28:17.289Z,67.00
2023-01-15T10:33:32.911Z,54.00
2023-01-15T10:38:40.546Z,50.75
2023-01-15T10:43:45.010Z,48.50
2023-01-15T10:48:58.368Z,50.25
2023-01-15T10:54:41.202Z,43.25
2023-01-15T10:59:52.481Z,43.25
2023-01-15T11:04:58.066Z,46.75
2023-01-15T11:10:04.760Z,39.50
2023-01-15T11:15:34.299Z,38.50
2023-01-15T11:20:44.719Z,46.00
2023-01-15T11:25:59.865Z,37.25
2023-01-15T11:31:04.620Z,34.25
2023-01-15T11:36:10.295Z,34.50
2023-01-15T11:41:23.857Z,37.50
2023-01-15T11:46:50.335Z,31.00
2023-01-15T11:51:54.417Z,32.00
2023-01-15T11:56:59.035Z,37.75
2023-01-15T12:02:13.878Z,33.00
2023-01-15T12:07:19.736Z,32.25
2023-01-15T12:12:29.996Z,29.25
2023-01-15T12:17:40.749Z,41.00
2023-01-15T12:23:00.176Z,32.25
2023-01-15T12:28:13.770Z,30.25
2023-01-15T12:33:21.396Z,36.50
2023-01-15T12:38:46.900Z,34.25
2023-01-15T12:44:11.909Z,32.00
2023-01-15T12:49:16.632Z,29.75
2023-01-15T12:54:27.568Z,27.25
2023-01-15T12:59:37.983Z,25.00
2023-01-15T13:04:59.573Z,29.00
2023-01-15T13:10:09.061Z,23.75
2023-01-15T13:15:23.093Z,30.00
2023-01-15T13:20:35.040Z,31.50
2023-01-15T13:25:39.657Z,21.50
2023-01-15T13:31:07.959Z,27.50
2023-01-15T13:36:18.916Z,28.50
2023-01-15T13:41:44.981Z,28.75
2023-01-15T13:46:50.967Z,24.25
2023-01-15T13:51:55.847Z,24.50
2023-01-15T13:57:24.732Z,34.75
2023-01-15T14:02:36.783Z,20.75
2023-01-15T14:07:42.148Z,22.25
2023-01-15T14:12:54.361Z,22.00
2023-01-15T14:18:17.331Z,21.75
2023-01-15T14:23:36.889Z,23.00
2023-01-15T14:28:59.852Z,21.75
2023-01-15T14:34:14.757Z,24.00
2023-01-15T14:39:28.546Z,28.50
2023-01-15T14:44:34.609Z,22.25
2023-01-15T14:49:51.827Z,32.00
2023-01-15T14:55:00.583Z,24.00
2023-01-15T15:00:06.803Z,24.00
2023-01-15T15:05:17.056Z,24.75
2023-01-15T15:10:24.198Z,23.25
2023-01-15T15:15:28.775Z,25.00
2023-01-15T15:20:52.371Z,23.00
2023-01-15T15:25:59.797Z,24.25
2023-01-15T15:31:04.153Z,28.00
2023-01-15T15:36:10.014Z,28.00
2023-01-15T15:41:14.621Z,24.00
2023-01-15T15:46:44.590Z,22.75
2023-01-15T15:51:53.070Z,23.50
2023-01-15T15:57:29.486Z,23.00
2023-01-15T16:02:39.957Z,28.50
2023-01-15T16:07:44.879Z,24.50
2023-01-15T16:12:51.591Z,26.75
2023-01-15T16:17:56.696Z,19.50
2023-01-15T16:23:02.948Z,19.75
2023-01-15T16:28:07.723Z,21.00
2023-01-15T16:33:15.988Z,18.50
2023-01-15T16:38:21.853Z,21.50
2023-01-15T16:43:27.698Z,17.00
2023-01-15T16:48:47.941Z,20.75
2023-01-15T16:53:53.120Z,17.25
2023-01-15T16:58:57.298Z,19.50
2023-01-15T17:04:02.019Z,20.50
2023-01-15T17:09:06.203Z,21.25
2023-01-15T17:14:12.444Z,16.00
2023-01-15T17:19:18.640Z,20.25
2023-01-15T17:24:23.177Z,18.75
2023-01-15T17:29:27.654Z,18.00
2023-01-15T17:34:34.682Z,17.00
2023-01-15T17:39:39.217Z,16.00
2023-01-15T17:44:44.415Z,18.25
2023-01-15T17:49:48.969Z,15.75
2023-01-15T17:55:11.451Z,16.25
2023-01-15T18:00:35.276Z,17.50
2023-01-15T18:05:39.835Z,18.25
2023-01-15T18:10:44.415Z,20.75
2023-01-15T18:15:49.112Z,20.75
2023-01-15T18:20:53.635Z,16.00
2023-01-15T18:25:58.583Z,16.00
2023-01-15T18:31:03.974Z,17.50
2023-01-15T18:36:13.754Z,19.00
2023-01-15T18:41:39.941Z,18.75
2023-01-15T18:46:48.317Z,16.50
2023-01-15T18:52:10.917Z,16.00
2023-01-15T18:57:16.059Z,16.00
2023-01-15T19:02:21.093Z,20.25
2023-01-15T19:07:25.648Z,16.50
2023-01-15T19:12:30.427Z,20.50
2023-01-15T19:17:53.426Z,18.25
2023-01-15T19:23:02.742Z,20.25
2023-01-15T19:28:10.673Z,16.25
2023-01-15T19:33:15.175Z,19.25
2023-01-15T19:38:19.763Z,17.00
2023-01-15T19:43:42.333Z,17.50
2023-01-15T19:49:05.441Z,18.25
2023-01-15T19:54:09.967Z,15.25
2023-01-15T19:59:14.489Z,14.75
2023-01-15T20:04:19.078Z,18.50
2023-01-15T20:09:23.683Z,18.25
2023-01-15T20:14:30.962Z,16.25
2023-01-15T20:19:35.430Z,15.00
2023-01-15T20:24:45.334Z,18.75
2023-01-15T20:29:56.580Z,17.50
2023-01-15T20:35:01.285Z,17.50
2023-01-15T20:40:06.676Z,16.25
2023-01-15T20:45:15.016Z,16.00
2023-01-15T20:50:21.991Z,16.75
2023-01-15T20:55:26.425Z,16.50
2023-01-15T21:00:30.770Z,16.00
2023-01-15T21:05:35.292Z,18.00
2023-01-15T21:10:40.292Z,20.50
2023-01-15T21:15:44.852Z,20.75
2023-01-15T21:20:49.360Z,17.00
2023-01-15T21:25:59.972Z,15.50
2023-01-15T21:31:08.334Z,20.00
2023-01-15T21:36:15.680Z,18.00
2023-01-15T21:41:20.330Z,19.00
2023-01-15T21:46:28.631Z,17.00
2023-01-15T21:51:33.272Z,15.25
2023-01-15T21:56:39.548Z,19.00
2023-01-15T22:01:44.177Z,17.50
2023-01-15T22:06:48.748Z,16.75
2023-01-15T22:11:53.808Z,16.00
2023-01-15T22:17:00.163Z,19.75
2023-01-15T22:22:09.353Z,15.50
2023-01-15T22:27:16.358Z,16.00
2023-01-15T22:32:21.079Z,21.50
2023-01-15T22:37:25.652Z,16.00
2023-01-15T22:42:32.287Z,17.00
2023-01-15T22:47:36.782Z,16.50
2023-01-15T22:52:42.009Z,15.75
2023-01-15T22:57:48.893Z,17.50
2023-01-15T23:02:56.091Z,16.00
2023-01-15T23:08:00.665Z,21.00
2023-01-15T23:13:05.692Z,16.50
2023-01-15T23:18:10.173Z,17.50
2023-01-15T23:23:14.778Z,19.75
2023-01-15T23:28:19.427Z,16.50
2023-01-15T23:33:24.226Z,16.00
2023-01-15T23:38:28.827Z,19.00
2023-01-15T23:43:51.298Z,19.25
2023-01-15T23:48:55.777Z,18.00
2023-01-15T23:54:00.798Z,15.25
2023-01-15T23:59:05.338Z,17.25
